METAR Portugal - 19 Feb 2018 - 0158 UTC - RocketRoute WX - rrwx.com
LPFR 190130Z 05003KT CAVOK 10/07 Q1018 LPPT 190130Z 02008KT CAVOK 11/03 Q1020 LPMA 190130Z 02012KT 9999 SCT015 FEW018TCU 15/11 Q1021 LPPD 190130Z 14004KT 9999 FEW018 BKN030 15/11 Q1025 LPPR 190130Z 03003KT CAVOK 09/07 Q1022 LPPS 190130Z 03010KT 9999 SCT014 14/09 Q1021 LPAZ 190100Z 09006KT CAVOK 11/07 Q1026 LPST  

RocketRoute WX - rrwx.com weather for pilots